Time;durP1;ratioP1;P1;durP2;ratioP2;P2;SDS_P1;SDS_P2;PMS_P1;PMS_P2;Temp;Humidity;BMP_temperature;BMP_pressure;BME280_temperature;BME280_humidity;BME280_pressure;Samples;Min_cycle;Max_cycle;Signal;HPM_P1;HPM_P2
2022/06/16 00:01:46;;;;;;;11.95;6.00;;;10.40;99.90;;;9.28;98.49;101464.28;4989648;28;20037;-75
2022/06/16 00:04:12;;;;;;;8.48;4.60;;;10.50;99.90;;;9.35;98.33;101471.09;4978474;28;20014;-75
2022/06/16 00:06:38;;;;;;;8.10;4.88;;;10.50;99.90;;;9.40;97.92;101463.06;4935982;28;20030;-75
2022/06/16 00:09:04;;;;;;;10.95;4.78;;;10.50;99.90;;;9.42;97.31;101463.88;4960780;28;20387;-75
2022/06/16 00:11:30;;;;;;;10.50;5.47;;;10.50;99.90;;;9.42;98.10;101464.72;4967584;28;20049;-75
2022/06/16 00:13:56;;;;;;;8.65;5.40;;;10.50;99.90;;;9.35;99.05;101467.56;4996426;28;20565;-75
2022/06/16 00:16:23;;;;;;;9.57;4.97;;;10.50;99.90;;;9.29;99.39;101467.75;4992255;28;20088;-75
2022/06/16 00:18:50;;;;;;;8.75;4.88;;;10.40;99.90;;;9.26;99.14;101473.97;4952916;28;20033;-75
2022/06/16 00:21:17;;;;;;;12.10;5.07;;;10.40;99.90;;;9.26;98.68;101462.59;4981830;28;20028;-75
2022/06/16 00:23:44;;;;;;;7.10;5.18;;;10.40;99.90;;;9.25;99.52;101467.00;4979677;28;20100;-74
2022/06/16 00:26:17;;;;;;;17.15;5.82;;;10.40;99.90;;;9.27;100.00;101473.06;4982716;28;20161;-75
2022/06/16 00:28:43;;;;;;;10.80;6.30;;;10.40;99.90;;;9.30;100.00;101480.84;4968933;28;20033;-75
2022/06/16 00:31:12;;;;;;;10.68;5.45;;;10.40;99.90;;;9.33;100.00;101472.91;5001323;28;20038;-75
2022/06/16 00:33:39;;;;;;;9.35;5.70;;;10.50;99.90;;;9.35;100.00;101473.72;5000560;28;20042;-75
2022/06/16 00:36:06;;;;;;;12.80;6.03;;;10.50;99.90;;;9.36;100.00;101471.94;4985620;28;20021;-75
2022/06/16 00:38:32;;;;;;;9.50;6.10;;;10.50;99.90;;;9.38;100.00;101475.38;4994722;28;20053;-75
2022/06/16 00:40:58;;;;;;;13.23;6.15;;;10.50;99.90;;;9.40;100.00;101466.53;4984563;28;20572;-74
2022/06/16 00:43:25;;;;;;;12.52;5.57;;;10.60;99.90;;;9.43;100.00;101466.44;4966908;28;20081;-75
2022/06/16 00:46:00;;;;;;;8.35;5.80;;;10.60;99.90;;;9.46;100.00;101460.25;4976653;28;20075;-75
2022/06/16 00:48:38;;;;;;;17.33;6.10;;;10.60;99.90;;;9.48;100.00;101458.44;4969623;28;20113;-75
2022/06/16 00:51:18;;;;;;;13.93;4.90;;;10.60;99.90;;;9.48;100.00;101457.56;5022984;23;20061;-77
2022/06/16 00:53:45;;;;;;;12.15;5.50;;;10.60;99.90;;;9.48;100.00;101468.06;4983043;28;20044;-78
2022/06/16 00:56:16;;;;;;;13.63;5.70;;;10.60;99.90;;;9.43;100.00;101458.56;4940739;28;20514;-77
2022/06/16 00:58:48;;;;;;;11.40;5.30;;;10.60;99.90;;;9.47;100.00;101467.22;4957276;28;20030;-77
2022/06/16 01:01:18;;;;;;;8.60;5.45;;;10.60;99.90;;;9.45;100.00;101471.66;4963605;28;20108;-78
2022/06/16 01:06:30;;;;;;;8.05;5.47;;;10.50;99.90;;;9.31;99.21;101474.72;4921691;28;20103;-77
2022/06/16 01:09:22;;;;;;;12.90;5.95;;;10.40;99.90;;;9.32;99.24;101476.41;4954371;28;20049;-78
2022/06/16 01:15:01;;;;;;;6.63;5.15;;;10.50;99.90;;;9.40;99.79;101468.31;4944372;28;20045;-77
2022/06/16 01:18:14;;;;;;;9.27;5.45;;;10.50;99.90;;;9.46;100.00;101468.13;4952207;28;20043;-78
2022/06/16 01:20:48;;;;;;;9.77;5.93;;;10.60;99.90;;;9.49;100.00;101467.19;4954740;28;20032;-78
2022/06/16 01:23:35;;;;;;;13.90;6.13;;;10.60;99.90;;;9.55;100.00;101467.84;4955243;28;20023;-78
2022/06/16 01:26:34;;;;;;;10.38;5.82;;;10.60;99.90;;;9.61;100.00;101465.03;4962689;28;20101;-78
2022/06/16 01:29:28;;;;;;;10.60;5.38;;;10.70;99.90;;;9.68;100.00;101456.97;4944545;28;20861;-78
2022/06/16 01:32:11;;;;;;;12.82;6.70;;;10.80;99.90;;;9.74;100.00;101457.63;4931015;28;20126;-78
2022/06/16 01:35:02;;;;;;;12.32;6.00;;;10.90;99.90;;;9.78;100.00;101455.75;4955912;28;20026;-78
2022/06/16 01:37:45;;;;;;;18.20;6.28;;;10.90;99.90;;;9.84;100.00;101455.56;4963760;28;20044;-78
2022/06/16 01:40:31;;;;;;;7.93;5.57;;;10.90;99.90;;;9.90;100.00;101458.00;4954781;28;20388;-78
2022/06/16 01:43:35;;;;;;;6.55;4.13;;;10.90;99.90;;;9.84;100.00;101460.81;4926640;28;20034;-78
2022/06/16 01:46:11;;;;;;;10.57;4.65;;;10.90;99.90;;;9.80;100.00;101459.19;4941517;28;20081;-78
2022/06/16 01:48:40;;;;;;;8.07;4.15;;;10.90;99.90;;;9.79;99.99;101457.47;4991840;28;20046;-78
2022/06/16 01:51:28;;;;;;;7.68;4.47;;;10.90;99.90;;;9.82;99.45;101454.75;4945077;28;20034;-78
2022/06/16 01:54:08;;;;;;;10.38;4.80;;;10.80;99.90;;;9.70;99.03;101461.25;4962022;28;20030;-77
2022/06/16 01:56:51;;;;;;;6.43;3.45;;;10.80;99.90;;;9.61;98.81;101454.53;4945497;28;20092;-77
2022/06/16 01:59:26;;;;;;;7.10;3.90;;;10.70;99.90;;;9.59;98.76;101455.44;4930388;28;20431;-77
2022/06/16 02:02:04;;;;;;;7.03;3.80;;;10.70;99.90;;;9.60;99.00;101460.66;4963205;28;20548;-78
2022/06/16 02:04:39;;;;;;;5.85;3.70;;;10.70;99.90;;;9.62;98.45;101463.25;4928013;28;20046;-77
2022/06/16 02:07:19;;;;;;;6.15;3.67;;;10.70;99.90;;;9.62;98.05;101461.50;4931009;28;20065;-78
2022/06/16 02:09:51;;;;;;;4.90;3.60;;;10.70;99.90;;;9.66;98.49;101459.63;4929080;28;20100;-78
2022/06/16 02:15:49;;;;;;;5.85;3.65;;;10.80;99.90;;;9.71;98.77;101448.97;4956268;28;20049;-78
2022/06/16 02:18:27;;;;;;;7.03;3.75;;;10.80;99.90;;;9.74;98.81;101456.75;4954279;28;20041;-77
2022/06/16 02:21:02;;;;;;;10.45;4.88;;;10.80;99.90;;;9.78;99.51;101450.47;4935872;28;20037;-78
2022/06/16 02:23:29;;;;;;;7.82;4.10;;;10.80;99.90;;;9.80;99.91;101446.88;4976506;28;20030;-77
2022/06/16 02:25:57;;;;;;;6.85;3.80;;;10.90;99.90;;;9.81;99.52;101437.25;4923018;28;20038;-77
2022/06/16 02:28:24;;;;;;;7.53;3.80;;;10.90;99.90;;;9.84;99.71;101440.63;4938544;28;20033;-78
2022/06/16 02:31:03;;;;;;;6.97;4.82;;;10.90;99.90;;;9.88;99.85;101449.28;4961000;28;20034;-78
2022/06/16 02:34:20;;;;;;;7.03;4.55;;;10.90;99.90;;;9.85;100.00;101445.00;4951227;28;20033;-78
2022/06/16 02:37:23;;;;;;;6.68;3.83;;;10.90;99.90;;;9.81;100.00;101440.75;4944323;28;20045;-78
2022/06/16 02:40:33;;;;;;;7.28;4.25;;;10.90;99.90;;;9.79;100.00;101437.28;4938395;28;20437;-78
2022/06/16 02:43:25;;;;;;;4.97;3.85;;;10.90;99.90;;;9.80;100.00;101436.38;4969680;28;20075;-78
2022/06/16 02:46:23;;;;;;;10.65;5.30;;;10.90;99.90;;;9.85;100.00;101437.09;4963878;28;20078;-78
2022/06/16 02:49:16;;;;;;;8.95;4.68;;;10.90;99.90;;;9.88;100.00;101435.28;4962542;28;20506;-77
2022/06/16 02:52:09;;;;;;;8.77;4.47;;;11.00;99.90;;;9.90;100.00;101433.47;4942328;28;20046;-77
2022/06/16 02:55:01;;;;;;;12.75;5.32;;;10.90;99.90;;;9.85;100.00;101433.63;4969581;28;20093;-78
2022/06/16 02:57:42;;;;;;;11.18;5.00;;;10.90;99.90;;;9.88;100.00;101427.41;4952739;28;20023;-78
2022/06/16 03:00:17;;;;;;;10.13;4.32;;;11.00;99.90;;;9.91;100.00;101422.88;4936204;28;20406;-77
2022/06/16 03:02:44;;;;;;;12.77;5.47;;;11.00;99.90;;;9.96;100.00;101420.13;4951314;28;20056;-77
2022/06/16 03:05:13;;;;;;;11.18;4.47;;;11.00;99.90;;;10.02;100.00;101412.00;4953985;28;20030;-78
2022/06/16 03:07:39;;;;;;;9.20;5.00;;;11.10;99.90;;;10.08;100.00;101424.94;4928111;28;20101;-77
2022/06/16 03:10:07;;;;;;;11.55;4.63;;;11.10;99.90;;;10.12;100.00;101425.72;4947021;28;20172;-78
2022/06/16 03:12:38;;;;;;;10.07;5.03;;;11.10;99.90;;;10.13;100.00;101424.78;4920325;28;20109;-78
2022/06/16 03:15:05;;;;;;;10.02;5.15;;;11.20;99.90;;;10.10;100.00;101420.50;4930600;28;20058;-78
2022/06/16 03:17:31;;;;;;;9.50;5.22;;;11.10;99.90;;;10.06;100.00;101427.66;4936806;28;20576;-78
2022/06/16 03:19:58;;;;;;;13.38;5.32;;;11.10;99.90;;;10.05;100.00;101419.81;4936063;28;20034;-78
2022/06/16 03:22:24;;;;;;;9.15;4.93;;;11.10;99.90;;;10.05;100.00;101425.91;4949731;28;20037;-77
2022/06/16 03:24:50;;;;;;;9.07;4.80;;;11.10;99.90;;;10.07;100.00;101418.84;4940404;28;20022;-78
2022/06/16 03:27:17;;;;;;;11.00;5.22;;;11.20;99.90;;;10.09;100.00;101408.28;4965111;28;20034;-78
2022/06/16 03:29:43;;;;;;;9.02;5.25;;;11.20;99.90;;;10.14;100.00;101411.59;4922972;28;20453;-77
2022/06/16 03:32:09;;;;;;;10.88;5.82;;;11.20;99.90;;;10.21;100.00;101410.47;4950942;28;20026;-78
2022/06/16 03:34:35;;;;;;;11.77;5.70;;;11.30;99.90;;;10.27;100.00;101419.94;4955260;28;20034;-78
2022/06/16 03:37:01;;;;;;;14.35;5.45;;;11.40;99.90;;;10.35;100.00;101415.31;4944271;28;20060;-77
2022/06/16 03:39:36;;;;;;;10.48;5.28;;;11.40;99.90;;;10.44;100.00;101409.72;4952865;28;20039;-77
2022/06/16 03:42:02;;;;;;;8.85;5.07;;;11.50;99.90;;;10.53;100.00;101413.78;4965609;28;20501;-77
2022/06/16 03:44:28;;;;;;;12.35;5.35;;;11.50;99.90;;;10.61;100.00;101410.91;4948639;28;20113;-78
2022/06/16 03:46:54;;;;;;;11.35;5.00;;;11.60;99.90;;;10.67;100.00;101416.81;4958829;28;20045;-78
2022/06/16 03:49:22;;;;;;;9.63;5.43;;;11.70;99.90;;;10.75;100.00;101413.88;4945046;28;20039;-78
2022/06/16 03:51:48;;;;;;;12.98;5.70;;;11.70;99.90;;;10.80;100.00;101430.38;4943464;28;20053;-78
2022/06/16 03:54:13;;;;;;;11.95;5.50;;;11.80;99.90;;;10.82;100.00;101431.19;4952104;28;20028;-78
2022/06/16 03:56:40;;;;;;;8.23;4.55;;;11.80;99.90;;;10.82;100.00;101425.94;4974234;28;20039;-76
2022/06/16 03:59:06;;;;;;;7.55;4.68;;;11.80;99.90;;;10.86;100.00;101421.38;4943680;28;20049;-76
2022/06/16 04:01:32;;;;;;;9.38;4.90;;;11.90;99.90;;;10.89;100.00;101413.38;4951246;28;20031;-76
2022/06/16 04:04:00;;;;;;;6.65;4.50;;;11.90;99.90;;;10.94;100.00;101413.22;4953001;28;20070;-76
2022/06/16 04:06:35;;;;;;;11.05;5.43;;;11.90;99.90;;;10.98;100.00;101402.50;4943391;28;20022;-76
2022/06/16 04:09:06;;;;;;;8.77;4.68;;;12.00;99.90;;;11.05;100.00;101411.03;4946775;28;20026;-76
2022/06/16 04:11:32;;;;;;;8.73;5.10;;;12.00;99.90;;;11.13;100.00;101413.38;4939363;28;20041;-76
2022/06/16 04:14:12;;;;;;;9.30;5.20;;;12.10;99.90;;;11.21;100.00;101416.56;4937751;28;20554;-77
2022/06/16 04:16:53;;;;;;;9.35;5.25;;;12.20;99.90;;;11.29;100.00;101423.28;4970084;28;20026;-76
2022/06/16 04:19:21;;;;;;;7.18;4.75;;;12.30;99.90;;;11.41;100.00;101421.94;4941632;28;20102;-76
2022/06/16 04:21:48;;;;;;;14.07;5.03;;;12.40;99.90;;;11.55;100.00;101424.03;4960647;28;20476;-77
2022/06/16 04:24:22;;;;;;;7.70;4.80;;;12.50;99.90;;;11.69;100.00;101427.00;4926822;28;20399;-76
2022/06/16 04:26:51;;;;;;;10.02;5.28;;;12.60;99.90;;;11.90;100.00;101427.09;4942705;28;20065;-76
2022/06/16 04:29:18;;;;;;;10.98;5.72;;;12.80;99.90;;;12.17;100.00;101430.34;4918942;28;20027;-76
2022/06/16 04:31:47;;;;;;;9.68;6.03;;;13.00;99.90;;;12.54;100.00;101434.06;4938813;28;20039;-76
2022/06/16 04:34:14;;;;;;;14.20;5.68;;;13.40;99.90;;;12.98;100.00;101435.63;4956445;28;20104;-77
2022/06/16 04:36:40;;;;;;;15.18;5.18;;;13.70;99.90;;;13.29;100.00;101428.06;4955452;28;20057;-76
2022/06/16 04:39:06;;;;;;;8.30;5.10;;;14.00;99.90;;;13.50;96.95;101434.13;4937793;28;20033;-76
2022/06/16 04:41:32;;;;;;;10.98;5.57;;;14.30;99.90;;;13.97;95.27;101430.06;4949510;28;20030;-76
2022/06/16 04:43:57;;;;;;;15.35;5.32;;;14.60;99.90;;;14.19;93.53;101431.66;4935989;28;20039;-76
2022/06/16 04:46:27;;;;;;;12.15;4.82;;;14.70;99.90;;;14.20;92.33;101436.03;4954681;28;20502;-75
2022/06/16 04:48:52;;;;;;;12.25;4.60;;;14.80;99.90;;;14.14;91.70;101443.34;4927201;28;20507;-76
2022/06/16 04:51:18;;;;;;;11.43;4.85;;;14.80;99.90;;;14.00;90.66;101444.97;4937340;28;20037;-76
2022/06/16 04:53:44;;;;;;;12.73;4.53;;;14.70;99.90;;;13.85;90.45;101450.09;4896557;28;20038;-76
2022/06/16 04:56:10;;;;;;;;;;;14.70;99.90;;;13.79;90.68;101444.25;4965154;28;20034;-76
2022/06/16 04:58:36;;;;;;;9.13;4.15;;;14.60;99.90;;;13.74;90.14;101453.25;4950181;28;19914;-77
2022/06/16 05:01:04;;;;;;;7.68;4.15;;;14.50;99.90;;;13.72;90.30;101452.47;4953058;28;20061;-76
2022/06/16 05:03:33;;;;;;;10.23;4.45;;;14.50;99.90;;;13.78;90.58;101439.84;4898861;28;20030;-75
2022/06/16 05:05:59;;;;;;;8.23;4.22;;;14.70;99.90;;;14.52;88.48;101448.50;4954269;28;20396;-77
2022/06/16 05:08:25;;;;;;;8.77;4.25;;;15.40;99.90;;;16.49;82.23;101461.50;4929060;28;20042;-76
2022/06/16 05:10:51;;;;;;;8.52;3.90;;;16.90;99.90;;;19.09;70.62;101465.97;4977567;28;20034;-76
2022/06/16 05:13:18;;;;;;;7.93;3.63;;;18.40;99.90;;;20.80;63.24;101478.31;4941563;28;20069;-76
2022/06/16 05:15:47;;;;;;;11.13;4.10;;;19.80;99.90;;;22.02;58.51;101487.34;4918512;28;20034;-77
2022/06/16 05:18:13;;;;;;;6.75;3.58;;;21.10;99.90;;;23.68;53.57;101508.81;4967420;28;20014;-77
2022/06/16 05:20:41;;;;;;;9.27;4.10;;;22.60;99.90;;;25.89;49.26;101524.88;4901572;28;20436;-77
2022/06/16 05:23:12;;;;;;;9.68;4.20;;;23.90;99.90;;;27.08;46.15;101539.91;4917578;28;20088;-78
2022/06/16 05:25:42;;;;;;;6.78;3.80;;;24.40;99.90;;;28.43;43.30;101552.56;4938739;28;20065;-75
2022/06/16 05:28:09;;;;;;;8.35;3.85;;;26.00;96.50;;;28.34;42.70;101567.13;4935402;28;20113;-77
2022/06/16 05:30:35;;;;;;;12.40;4.38;;;26.30;95.30;;;27.74;42.59;101562.72;4921358;28;20039;-79
2022/06/16 05:33:01;;;;;;;14.05;3.67;;;26.20;94.30;;;27.08;43.24;101570.47;4955815;28;20049;-78
2022/06/16 05:35:27;;;;;;;9.98;3.60;;;26.00;95.60;;;27.02;44.34;101581.94;4939355;28;20054;-78
2022/06/16 05:37:56;;;;;;;6.35;3.40;;;26.20;94.90;;;28.00;42.25;101585.16;4927119;28;20026;-80
2022/06/16 05:40:23;;;;;;;8.10;3.25;;;26.30;94.00;;;27.69;41.93;101587.56;4943811;28;20417;-83
2022/06/16 05:42:49;;;;;;;11.07;3.53;;;26.40;94.10;;;28.18;41.98;101598.56;4912810;28;20043;-78
2022/06/16 05:45:14;;;;;;;10.98;3.15;;;26.70;93.90;;;28.21;41.41;101606.38;4924217;28;20061;-83
2022/06/16 05:47:41;;;;;;;9.82;3.15;;;26.90;93.90;;;27.98;41.78;101600.72;4955645;28;20026;-80
2022/06/16 05:50:08;;;;;;;8.70;2.90;;;26.70;93.40;;;27.34;43.05;101599.38;4966048;28;20085;-79
2022/06/16 05:52:38;;;;;;;7.43;2.90;;;26.90;93.80;;;29.03;40.60;101624.56;4940621;28;20283;-81
2022/06/16 05:55:04;;;;;;;8.45;3.00;;;27.20;93.60;;;27.90;42.12;101619.63;4913744;28;20047;-79
2022/06/16 05:57:30;;;;;;;12.30;3.38;;;27.40;94.00;;;28.57;41.91;101625.06;4886279;28;20038;-79
2022/06/16 05:59:55;;;;;;;11.38;3.33;;;27.40;93.10;;;28.47;41.29;101631.59;4908791;28;20046;-81
2022/06/16 06:02:21;;;;;;;10.55;3.10;;;27.30;93.30;;;27.66;42.99;101624.91;4961227;28;20031;-79
2022/06/16 06:04:51;;;;;;;7.88;2.92;;;26.60;94.10;;;26.25;46.35;101611.28;4912462;28;20077;-80
2022/06/16 06:07:17;;;;;;;6.90;2.63;;;26.10;94.40;;;25.54;46.75;101602.00;4945625;28;24980;-80
2022/06/16 06:18:15;;;;;;;8.70;2.45;;;22.90;98.30;;;21.90;55.46;101585.72;4875538;28;20074;-81
2022/06/16 06:20:41;;;;;;;5.78;2.40;;;22.60;99.50;;;21.89;56.69;101590.22;4911025;28;20026;-79
2022/06/16 06:23:07;;;;;;;11.38;2.50;;;22.40;99.80;;;21.69;56.78;101583.78;4965018;28;20030;-78
2022/06/16 06:25:33;;;;;;;6.55;2.20;;;22.00;99.90;;;21.00;58.06;101580.31;4907156;28;20116;-78
2022/06/16 06:28:04;;;;;;;4.63;1.58;;;21.70;99.90;;;20.78;58.59;101584.63;4884689;28;20408;-81
2022/06/16 06:30:31;;;;;;;12.63;2.45;;;21.30;99.90;;;20.32;60.29;101587.19;4900057;28;20034;-79
2022/06/16 06:32:59;;;;;;;8.80;1.95;;;21.10;99.90;;;20.13;62.95;101577.88;4896104;28;20077;-82
2022/06/16 06:35:25;;;;;;;9.05;2.30;;;21.00;99.90;;;20.28;61.33;101584.75;4909661;28;20057;-79
2022/06/16 06:37:53;;;;;;;9.23;2.60;;;20.80;99.90;;;20.12;62.01;101584.16;4910627;28;20038;-80
2022/06/16 06:40:40;;;;;;;5.47;2.17;;;20.70;99.90;;;19.99;63.40;101583.38;4933191;28;20042;-80
2022/06/16 06:43:06;;;;;;;;;;;20.70;99.90;;;20.06;63.99;101580.16;4920471;28;20040;-78
2022/06/16 06:45:33;;;;;;;5.28;1.80;;;20.70;99.90;;;20.53;61.77;101592.78;4921867;28;20330;-79
2022/06/16 06:48:03;;;;;;;7.30;1.83;;;21.00;99.90;;;21.27;59.77;101591.56;4938843;28;20069;-77
2022/06/16 06:50:38;;;;;;;7.82;1.80;;;21.40;99.90;;;21.67;57.80;101593.78;4863251;28;20047;-77
2022/06/16 06:53:08;;;;;;;7.88;1.85;;;21.70;99.90;;;21.76;56.17;101600.22;4902873;28;20113;-77
2022/06/16 06:55:39;;;;;;;10.38;2.22;;;21.90;99.90;;;21.71;56.68;101597.91;4925647;28;20117;-79
2022/06/16 06:58:06;;;;;;;7.10;1.73;;;21.90;99.90;;;21.88;56.90;101604.63;4902437;28;20042;-81
2022/06/16 07:00:38;;;;;;;14.07;1.98;;;22.00;99.90;;;21.70;55.99;101606.91;4916297;28;20082;-80
2022/06/16 07:03:03;;;;;;;8.45;1.90;;;22.20;99.90;;;22.07;56.70;101606.66;4909688;28;20508;-80
2022/06/16 07:05:29;;;;;;;8.23;1.42;;;22.50;99.90;;;22.38;55.02;101614.06;4920579;28;20112;-79
2022/06/16 07:07:58;;;;;;;8.27;1.73;;;22.70;99.50;;;22.16;54.43;101614.91;4933376;28;20033;-81
2022/06/16 07:10:33;;;;;;;7.40;1.95;;;22.40;99.70;;;21.74;56.24;101618.25;4885911;28;20197;-79
2022/06/16 07:12:58;;;;;;;4.57;1.55;;;22.40;99.90;;;22.09;55.69;101617.25;4894240;28;20026;-79
2022/06/16 07:15:24;;;;;;;8.63;1.77;;;22.50;99.90;;;22.39;54.67;101621.13;4927622;28;20030;-81
2022/06/16 07:17:50;;;;;;;9.55;2.53;;;22.50;99.60;;;21.98;55.89;101619.94;4854472;28;20030;-81
2022/06/16 07:20:24;;;;;;;7.63;1.60;;;;;;;22.03;55.06;101618.63;4900444;28;20213;-82
2022/06/16 07:22:49;;;;;;;5.20;1.85;;;22.60;99.10;;;22.57;53.31;101622.28;4936877;28;20150;-80
2022/06/16 07:25:15;;;;;;;8.45;2.03;;;22.80;99.60;;;22.77;54.20;101622.44;4915074;28;20920;-82
2022/06/16 07:27:42;;;;;;;6.88;1.63;;;23.00;99.80;;;22.91;54.09;101624.78;4945766;28;20034;-77
2022/06/16 07:30:16;;;;;;;4.38;1.35;;;23.50;98.70;;;23.50;51.54;101637.66;4962170;28;20035;-78
2022/06/16 07:32:44;;;;;;;6.05;1.60;;;23.80;98.00;;;24.00;50.45;101646.81;4929086;28;20054;-78
2022/06/16 07:35:20;;;;;;;8.80;1.80;;;24.10;97.60;;;24.41;49.49;101648.47;4917456;28;21977;-78
2022/06/16 07:37:48;;;;;;;7.90;1.50;;;24.40;97.20;;;25.02;48.18;101657.28;4905272;28;20412;-80
2022/06/16 07:40:24;;;;;;;5.88;1.55;;;25.30;95.30;;;25.85;45.95;101665.59;4898424;28;20022;-80
2022/06/16 07:42:54;;;;;;;8.77;1.65;;;26.00;94.00;;;26.70;43.80;101680.63;4862341;28;20062;-81
2022/06/16 07:45:25;;;;;;;5.25;1.15;;;26.70;93.60;;;27.32;42.66;101690.63;4914374;28;20102;-79
2022/06/16 07:47:52;;;;;;;9.13;1.60;;;27.10;92.60;;;27.34;42.03;101696.72;4918981;28;20487;-80
2022/06/16 07:50:19;;;;;;;5.55;1.30;;;27.30;93.20;;;27.40;42.44;101696.09;4884877;28;20598;-80
2022/06/16 07:52:45;;;;;;;5.82;1.50;;;27.40;92.90;;;27.41;42.40;101698.66;4910380;28;20113;-80
2022/06/16 07:55:14;;;;;;;5.43;1.33;;;27.40;92.10;;;27.07;42.99;101698.53;4931024;28;20471;-79
2022/06/16 07:57:46;;;;;;;7.18;1.77;;;26.70;91.70;;;25.85;44.05;101692.56;4906276;28;20027;-79
2022/06/16 08:00:21;;;;;;;4.32;1.30;;;26.40;92.40;;;25.62;44.49;101686.72;4950379;28;20031;-79
2022/06/16 08:02:47;;;;;;;4.00;1.55;;;26.00;93.30;;;25.14;45.87;101691.16;4922899;28;20034;-80
2022/06/16 08:05:13;;;;;;;6.85;1.60;;;25.60;93.70;;;25.03;47.23;101685.91;4941911;28;20034;-81
2022/06/16 08:07:41;;;;;;;6.88;1.50;;;25.10;93.70;;;24.37;47.41;101682.03;4934313;28;20109;-77
2022/06/16 08:10:19;;;;;;;5.65;1.63;;;24.90;94.30;;;24.12;47.97;101681.50;4929131;28;20268;-77
2022/06/16 08:12:45;;;;;;;5.65;1.60;;;24.60;95.50;;;23.92;49.86;101679.75;4918797;28;20648;-78
2022/06/16 08:15:17;;;;;;;5.78;1.33;;;24.40;95.10;;;23.73;49.12;101678.63;4917491;28;20050;-76
2022/06/16 08:17:48;;;;;;;5.75;1.48;;;24.10;96.00;;;23.11;51.22;101676.88;4890385;28;20066;-78
2022/06/16 08:20:18;;;;;;;5.78;1.70;;;23.70;96.10;;;22.85;51.39;101685.25;4934431;28;20041;-78
2022/06/16 08:22:46;;;;;;;9.75;1.45;;;23.60;97.20;;;23.05;51.92;101688.97;4910113;28;20121;-81
2022/06/16 08:25:13;;;;;;;5.80;1.40;;;23.60;97.30;;;23.08;51.63;101675.28;4906690;28;20135;-81
2022/06/16 08:27:41;;;;;;;8.30;1.30;;;23.50;96.50;;;22.83;51.21;101678.28;4924746;28;20038;-80
2022/06/16 08:30:13;;;;;;;4.45;1.23;;;23.20;96.80;;;22.37;53.54;101680.25;4884336;28;20105;-80
2022/06/16 08:32:40;;;;;;;5.57;1.40;;;23.00;97.60;;;22.25;54.08;101675.91;4927881;28;20767;-80
2022/06/16 08:35:07;;;;;;;7.35;1.50;;;22.90;97.60;;;22.17;53.58;101673.81;4918161;28;20077;-80
2022/06/16 08:37:34;;;;;;;6.97;1.20;;;22.70;97.20;;;21.84;53.39;101667.50;4915282;28;20045;-81
2022/06/16 08:40:04;;;;;;;6.80;1.20;;;22.70;97.10;;;22.16;52.90;101672.13;4943247;28;20106;-80
2022/06/16 08:42:42;;;;;;;4.72;1.50;;;22.70;97.60;;;22.23;52.19;101675.19;4929438;28;20361;-79
2022/06/16 08:45:31;;;;;;;8.05;1.10;;;22.80;97.10;;;22.03;51.90;101682.97;4885895;28;20040;-81
2022/06/16 08:48:40;;;;;;;5.28;1.10;;;22.70;97.00;;;21.80;51.41;101682.13;4936392;28;20038;-79
2022/06/16 08:51:33;;;;;;;4.47;1.33;;;22.80;97.00;;;22.36;52.41;101691.13;4939701;28;20046;-80
2022/06/16 08:54:37;;;;;;;5.22;1.00;;;23.10;96.90;;;22.86;51.23;101694.16;4947897;28;20077;-80
2022/06/16 08:57:22;;;;;;;4.05;1.02;;;23.40;96.60;;;23.29;49.39;101704.00;4932510;28;20041;-80
2022/06/16 09:00:06;;;;;;;3.65;0.95;;;23.70;96.20;;;23.53;48.67;101706.41;4914280;28;20034;-80
2022/06/16 09:02:53;;;;;;;6.05;1.55;;;23.90;95.70;;;23.73;49.15;101702.00;4933796;28;20062;-81
2022/06/16 09:05:41;;;;;;;7.28;1.40;;;24.10;96.40;;;23.94;49.18;101699.31;4895707;28;20085;-78
2022/06/16 09:08:36;;;;;;;4.78;1.17;;;23.90;96.20;;;23.55;49.79;101705.28;4924725;28;20047;-78
2022/06/16 09:11:38;;;;;;;2.70;1.08;;;23.70;96.40;;;22.56;51.81;101690.34;4940798;28;20335;-80
2022/06/16 09:18:15;;;;;;;6.28;1.50;;;22.70;97.20;;;21.52;53.78;101687.94;4954940;28;20045;-81
2022/06/16 09:20:57;;;;;;;4.85;1.10;;;22.40;97.20;;;21.53;53.68;101695.84;4931188;28;21167;-78
2022/06/16 09:23:53;;;;;;;5.95;1.20;;;22.30;97.50;;;21.65;54.61;101689.53;4907618;28;20037;-80
2022/06/16 09:26:48;;;;;;;5.77;1.20;;;22.30;97.80;;;21.74;53.70;101698.69;4929490;28;20036;-81
2022/06/16 09:29:56;;;;;;;3.85;1.08;;;22.20;97.90;;;21.61;55.06;101692.56;4895373;28;20027;-81
2022/06/16 09:32:55;;;;;;;6.38;1.48;;;22.20;98.80;;;21.53;54.94;101679.75;4951006;28;20053;-80
2022/06/16 09:35:45;;;;;;;5.13;1.48;;;22.10;99.50;;;21.50;55.83;101680.84;4912632;28;20150;-80
2022/06/16 09:38:33;;;;;;;7.50;1.63;;;22.10;99.60;;;21.50;56.44;101686.22;4917850;28;20045;-81
2022/06/16 09:45:13;;;;;;;4.15;1.35;;;22.50;99.20;;;22.17;55.27;101683.69;4913349;28;20427;-78
2022/06/16 09:48:13;;;;;;;5.05;1.35;;;22.60;99.40;;;22.34;55.89;101685.88;4873298;28;20022;-82
2022/06/16 09:51:00;;;;;;;4.85;1.40;;;23.10;98.90;;;22.88;53.29;101689.50;4900623;28;20042;-81
2022/06/16 09:53:42;;;;;;;6.00;1.33;;;23.30;96.90;;;22.99;51.23;101688.63;4936769;28;20026;-81
2022/06/16 09:56:23;;;;;;;3.63;1.10;;;23.40;97.80;;;23.05;51.40;101691.66;4905110;28;20603;-80
2022/06/16 09:59:06;;;;;;;6.68;1.10;;;23.50;96.70;;;23.08;50.58;101691.41;4918630;28;20047;-81
2022/06/16 10:01:51;;;;;;;5.38;0.93;;;23.60;96.00;;;23.08;50.37;101686.03;4905350;28;20117;-77
2022/06/16 10:04:24;;;;;;;6.35;1.40;;;23.60;96.80;;;23.08;52.16;101686.03;4926639;28;20411;-81
2022/06/16 10:07:04;;;;;;;3.45;0.90;;;23.50;97.10;;;22.85;52.72;101692.44;4908938;28;20049;-80
2022/06/16 10:09:43;;;;;;;4.95;0.90;;;23.30;95.90;;;22.45;51.54;101691.22;4916997;28;20128;-81
2022/06/16 10:12:34;;;;;;;2.78;1.25;;;23.20;98.20;;;22.63;53.31;101686.16;4895882;28;20037;-81
2022/06/16 10:15:04;;;;;;;5.53;1.33;;;23.40;97.70;;;23.09;52.31;101693.13;4897152;28;20487;-80
2022/06/16 10:17:42;;;;;;;6.05;1.40;;;23.60;97.50;;;23.13;52.41;101693.69;4879955;28;20028;-81
2022/06/16 10:20:10;;;;;;;9.20;1.20;;;23.90;97.70;;;23.64;51.80;101694.72;4885740;28;20073;-81
2022/06/16 10:22:47;;;;;;;3.13;0.93;;;23.80;96.00;;;23.15;51.09;101691.72;4908916;28;20094;-80
2022/06/16 10:25:26;;;;;;;6.20;1.30;;;24.00;94.40;;;23.51;48.37;101708.38;4863733;28;20666;-78
2022/06/16 10:28:03;;;;;;;3.20;1.00;;;24.20;95.50;;;23.98;48.30;101706.13;4833557;28;20038;-78
2022/06/16 10:30:44;;;;;;;6.78;1.30;;;24.40;93.60;;;24.26;46.37;101720.66;4893854;28;20039;-80
2022/06/16 10:33:25;;;;;;;3.08;0.90;;;24.70;94.10;;;24.37;46.28;101722.38;4901277;28;20043;-79
2022/06/16 10:36:23;;;;;;;5.38;1.17;;;24.90;92.80;;;24.32;43.07;101730.03;4876292;28;20904;-81
2022/06/16 10:39:37;;;;;;;2.33;1.00;;;24.80;93.20;;;24.36;44.96;101731.44;4909110;28;20070;-78
2022/06/16 10:42:32;;;;;;;3.90;0.90;;;24.80;93.10;;;24.27;46.16;101718.81;4928670;28;20030;-81
2022/06/16 10:45:11;;;;;;;4.35;1.00;;;24.90;93.80;;;24.43;47.24;101721.84;4908652;28;20113;-81
2022/06/16 10:48:10;;;;;;;4.30;1.13;;;24.70;94.70;;;23.89;48.50;101720.38;4907330;28;20046;-81
2022/06/16 10:50:56;;;;;;;6.45;1.30;;;24.40;95.60;;;23.51;50.35;101724.50;4925394;28;20117;-81
2022/06/16 10:53:43;;;;;;;10.98;1.42;;;24.00;95.90;;;23.23;51.65;101718.78;4917802;28;20117;-81
2022/06/16 10:56:22;;;;;;;5.75;1.52;;;23.90;97.20;;;23.21;52.32;101718.06;4892911;28;20034;-81
2022/06/16 10:59:08;;;;;;;5.40;1.40;;;24.00;96.20;;;23.52;50.50;101727.06;4871419;28;20030;-81
2022/06/16 11:01:50;;;;;;;6.10;1.60;;;24.20;95.50;;;23.72;49.52;101732.56;4931509;23;20134;-81
2022/06/16 11:04:38;;;;;;;5.00;1.20;;;24.30;94.70;;;23.78;48.00;101729.38;4896984;28;20034;-78
2022/06/16 11:07:10;;;;;;;3.38;1.25;;;24.30;94.70;;;23.91;48.50;101727.31;4936735;28;20030;-78